To NAV CANADA Home Page Login to a new session Search on AWWS site Feedback and Comments Disclaimer Vers la page française équivalente Tips FAQ What's new on the site To the Forecasts and Observations / NOTAM section To "File a Flight Plan" website Publications and other links Update of the User's profile FIC Telephone Numbers My Weather Data Folder Route Weather Data Regional Weather Data Local Weather Data To the Forecasts and Observations / NOTAM section
Request Generated 05/22/2015 at 12:57:47 UTC . Weather information available at that time is displayed.

METAR/TAF

MAKKOVIK/NL    

METAR CYFT 221200Z 27012KT 15SM FEW090 FEW220 M01/M06 A2985 RMK
AC1CI2 AC TR SLP113=
METAR CYFT 221100Z 26013KT 15SM FEW024 BKN220 M02/M06 A2983 RMK
SC1CI5 SC TR SLP106=
METAR CYFT 221000Z 26014G20KT 15SM FEW022 BKN220 M03/M06 A2980 RMK
SC1CI5 SC TR SLP097=

CYFT - No TAF is issued for this station

Your time UTC time
Weather data provided by Environment Canada and NAV CANADA